Time,TemperatureF,DewpointF,PressureIn,WindDirection,WindDirectionDegrees,WindSpeedMPH,WindSpeedGustMPH,Humidity,HourlyPrecipIn,Conditions,Clouds,dailyrainin,SolarRadiationWatts/m^2,SoftwareType,DateUTC
2013-07-11 00:01:00,76.7,72.5,30.03,WNW,283,1.0,7.0,87,0.00,,OVC080,0.00,0.00,VWS V14.01,2013-07-11 04:01:00,
2013-07-11 00:02:00,76.6,72.4,30.03,WNW,283,0.0,2.0,87,0.00,,OVC080,0.00,0.00,VWS V14.01,2013-07-11 04:02:00,
2013-07-11 00:07:00,76.6,72.4,30.03,WSW,244,0.0,3.0,87,0.00,,OVC080,0.00,0.00,VWS V14.01,2013-07-11 04:07:00,
2013-07-11 00:12:00,76.5,72.7,30.03,WSW,245,1.0,5.0,88,0.00,,OVC080,0.00,0.00,VWS V14.01,2013-07-11 04:12:00,
2013-07-11 00:17:00,76.4,72.6,30.03,SW,231,3.0,5.0,88,0.00,,OVC080,0.00,0.00,VWS V14.01,2013-07-11 04:17:00,
2013-07-11 00:22:00,76.0,72.2,30.02,SW,221,3.0,5.0,88,0.00,,SCT007,0.00,0.00,VWS V14.01,2013-07-11 04:22:00,
2013-07-11 00:27:00,75.8,72.0,30.02,West,261,2.0,5.0,88,0.00,,SCT007,0.00,0.00,VWS V14.01,2013-07-11 04:27:00,
2013-07-11 00:32:00,75.6,72.1,30.02,West,272,0.0,3.0,89,0.00,,SCT007,0.00,0.00,VWS V14.01,2013-07-11 04:32:00,
2013-07-11 00:37:00,75.5,72.0,30.02,West,272,0.0,3.0,89,0.00,,SCT007,0.00,0.00,VWS V14.01,2013-07-11 04:37:00,
2013-07-11 00:42:00,75.5,72.0,30.03,West,272,0.0,3.0,89,0.00,,CLR,0.00,0.00,VWS V14.01,2013-07-11 04:42:00,
2013-07-11 00:47:00,75.4,72.3,30.02,WNW,288,0.0,3.0,90,0.00,,CLR,0.00,0.00,VWS V14.01,2013-07-11 04:47:00,
2013-07-11 00:52:00,75.2,72.1,30.02,WNW,288,0.0,3.0,90,0.00,,CLR,0.00,0.00,VWS V14.01,2013-07-11 04:52:00,
2013-07-11 00:57:00,75.0,71.9,30.02,WNW,288,0.0,3.0,90,0.00,,CLR,0.00,0.00,VWS V14.01,2013-07-11 04:57:00,
2013-07-11 01:02:00,74.8,72.0,30.02,SW,229,0.0,1.0,91,0.00,,FEW050,0.00,0.00,VWS V14.01,2013-07-11 05:02:00,
2013-07-11 01:07:00,75.0,72.2,30.02,SW,229,0.0,1.0,91,0.00,,FEW050,0.00,0.00,VWS V14.01,2013-07-11 05:07:00,
2013-07-11 01:12:00,75.3,72.5,30.01,SE,144,2.0,3.0,91,0.00,,FEW050,0.00,0.00,VWS V14.01,2013-07-11 05:12:00,
2013-07-11 01:17:00,75.4,72.6,30.01,SE,144,1.0,3.0,91,0.00,,FEW050,0.00,0.00,VWS V14.01,2013-07-11 05:17:00,
2013-07-11 01:22:00,75.4,72.6,30.01,SE,144,2.0,3.0,91,0.00,,CLR,0.00,0.00,VWS V14.01,2013-07-11 05:22:00,
2013-07-11 01:27:00,75.4,72.6,30.01,ESE,120,2.0,4.0,91,0.00,,CLR,0.00,0.00,VWS V14.01,2013-07-11 05:27:00,
2013-07-11 01:32:00,75.4,72.6,30.01,ESE,111,0.0,1.0,91,0.00,,CLR,0.00,0.00,VWS V14.01,2013-07-11 05:32:00,
2013-07-11 01:37:00,75.2,72.4,30.01,East,94,1.0,2.0,91,0.00,,CLR,0.00,0.00,VWS V14.01,2013-07-11 05:37:00,
2013-07-11 01:42:00,75.1,72.3,30.01,East,94,0.0,2.0,91,0.00,,CLR,0.00,0.00,VWS V14.01,2013-07-11 05:42:00,
2013-07-11 01:47:00,75.0,72.5,30.00,East,94,0.0,2.0,92,0.00,,CLR,0.00,0.00,VWS V14.01,2013-07-11 05:47:00,
2013-07-11 01:52:00,74.8,72.3,30.00,East,94,0.0,2.0,92,0.00,,CLR,0.00,0.00,VWS V14.01,2013-07-11 05:52:00,
2013-07-11 01:57:00,74.8,72.3,30.00,SE,127,0.0,2.0,92,0.00,,CLR,0.00,0.00,VWS V14.01,2013-07-11 05:57:00,
2013-07-11 02:02:00,74.6,72.1,30.00,SE,127,0.0,0.0,92,0.00,,CLR,0.00,0.00,VWS V14.01,2013-07-11 06:02:00,
2013-07-11 02:07:00,74.6,72.1,30.00,SE,127,0.0,0.0,92,0.00,,CLR,0.00,0.00,VWS V14.01,2013-07-11 06:07:00,
2013-07-11 02:12:00,74.6,72.1,30.00,SE,127,0.0,0.0,92,0.00,,CLR,0.00,0.00,VWS V14.01,2013-07-11 06:12:00,
2013-07-11 02:17:00,74.5,72.3,30.00,SE,127,0.0,0.0,93,0.00,,CLR,0.00,0.00,VWS V14.01,2013-07-11 06:17:00,
2013-07-11 02:22:00,74.4,72.2,30.00,SE,127,0.0,0.0,93,0.00,,CLR,0.00,0.00,VWS V14.01,2013-07-11 06:22:00,
2013-07-11 02:27:00,74.2,72.1,30.00,SE,127,0.0,0.0,93,0.00,,CLR,0.00,0.00,VWS V14.01,2013-07-11 06:27:00,
2013-07-11 02:32:00,74.2,72.1,30.00,SE,127,0.0,0.0,93,0.00,,CLR,0.00,0.00,VWS V14.01,2013-07-11 06:32:00,
2013-07-11 02:37:00,74.2,72.1,30.00,SE,127,0.0,0.0,93,0.00,,CLR,0.00,0.00,VWS V14.01,2013-07-11 06:37:00,
2013-07-11 02:42:00,74.3,72.2,30.00,SE,127,0.0,0.0,93,0.00,,CLR,0.00,0.00,VWS V14.01,2013-07-11 06:42:00,
2013-07-11 02:47:00,74.3,72.2,30.00,SE,127,0.0,0.0,93,0.00,,CLR,0.00,0.00,VWS V14.01,2013-07-11 06:47:00,
2013-07-11 02:52:00,74.3,72.2,30.00,SE,127,0.0,0.0,93,0.00,,CLR,0.00,0.00,VWS V14.01,2013-07-11 06:52:00,
2013-07-11 02:57:00,74.2,72.1,30.00,SE,127,1.0,2.0,93,0.00,,CLR,0.00,0.00,VWS V14.01,2013-07-11 06:57:00,
2013-07-11 03:02:00,74.3,72.5,29.99,SE,126,0.0,2.0,94,0.00,,CLR,0.00,0.00,VWS V14.01,2013-07-11 07:02:00,
2013-07-11 03:07:00,74.2,72.4,29.99,SE,126,0.0,2.0,94,0.00,,CLR,0.00,0.00,VWS V14.01,2013-07-11 07:07:00,
2013-07-11 03:12:00,74.0,72.2,29.99,SE,126,0.0,2.0,94,0.00,,CLR,0.00,0.00,VWS V14.01,2013-07-11 07:12:00,
2013-07-11 03:17:00,74.0,72.2,29.99,SE,126,0.0,2.0,94,0.00,,CLR,0.00,0.00,VWS V14.01,2013-07-11 07:17:00,
2013-07-11 03:22:00,74.4,72.9,29.99,SE,126,2.0,3.0,95,0.00,,CLR,0.00,0.00,VWS V14.01,2013-07-11 07:22:00,
2013-07-11 03:27:00,74.5,73.0,29.99,SE,126,2.0,3.0,95,0.00,,CLR,0.00,0.00,VWS V14.01,2013-07-11 07:27:00,
2013-07-11 03:32:00,74.7,72.9,29.99,SE,126,2.0,2.0,94,0.00,,CLR,0.00,0.00,VWS V14.01,2013-07-11 07:32:00,
2013-07-11 03:37:00,74.6,72.8,29.98,SE,126,2.0,3.0,94,0.00,,CLR,0.00,0.00,VWS V14.01,2013-07-11 07:37:00,
2013-07-11 03:42:00,74.6,72.8,29.98,SE,132,1.0,3.0,94,0.00,,CLR,0.00,0.00,VWS V14.01,2013-07-11 07:42:00,
2013-07-11 03:47:00,74.8,73.0,29.98,SE,131,2.0,3.0,94,0.00,,CLR,0.00,0.00,VWS V14.01,2013-07-11 07:47:00,
2013-07-11 03:52:00,74.9,73.1,29.98,SE,131,2.0,3.0,94,0.00,,CLR,0.00,0.00,VWS V14.01,2013-07-11 07:52:00,
2013-07-11 03:57:00,74.9,73.1,29.98,ESE,123,2.0,4.0,94,0.00,,CLR,0.00,0.00,VWS V14.01,2013-07-11 07:57:00,
2013-07-11 04:02:00,74.9,73.1,29.98,ESE,122,3.0,3.0,94,0.00,,CLR,0.00,0.00,VWS V14.01,2013-07-11 08:02:00,
2013-07-11 04:07:00,74.9,73.1,29.98,ESE,121,5.0,6.0,94,0.00,,CLR,0.00,0.00,VWS V14.01,2013-07-11 08:07:00,
2013-07-11 04:12:00,75.0,73.2,29.98,SE,131,4.0,6.0,94,0.00,,CLR,0.00,0.00,VWS V14.01,2013-07-11 08:12:00,
2013-07-11 04:17:00,75.0,72.8,29.98,SE,142,6.0,6.0,93,0.00,,CLR,0.00,0.00,VWS V14.01,2013-07-11 08:17:00,
2013-07-11 04:22:00,74.9,72.7,29.98,SSE,148,2.0,6.0,93,0.00,,CLR,0.00,0.00,VWS V14.01,2013-07-11 08:22:00,
2013-07-11 04:27:00,74.9,72.7,29.98,SE,135,5.0,6.0,93,0.00,,CLR,0.00,0.00,VWS V14.01,2013-07-11 08:27:00,
2013-07-11 04:32:00,74.9,72.7,29.98,SE,144,3.0,6.0,93,0.00,,CLR,0.00,0.00,VWS V14.01,2013-07-11 08:32:00,
2013-07-11 04:37:00,74.9,72.7,29.98,SSE,161,2.0,6.0,93,0.00,,CLR,0.00,0.00,VWS V14.01,2013-07-11 08:37:00,
2013-07-11 04:42:00,75.0,72.8,29.99,SSE,161,3.0,6.0,93,0.00,,CLR,0.00,0.00,VWS V14.01,2013-07-11 08:42:00,
2013-07-11 04:47:00,75.1,72.9,29.99,SE,135,4.0,6.0,93,0.00,,CLR,0.00,0.00,VWS V14.01,2013-07-11 08:47:00,
2013-07-11 04:52:00,75.1,72.9,29.99,SE,141,7.0,7.0,93,0.00,,CLR,0.00,0.00,VWS V14.01,2013-07-11 08:52:00,
2013-07-11 04:57:00,75.2,72.7,29.99,South,181,4.0,7.0,92,0.00,,CLR,0.00,0.00,VWS V14.01,2013-07-11 08:57:00,
2013-07-11 05:02:00,75.2,72.7,29.99,SE,138,2.0,4.0,92,0.00,,CLR,0.00,0.00,VWS V14.01,2013-07-11 09:02:00,
2013-07-11 05:07:00,75.1,72.6,29.99,SE,144,6.0,7.0,92,0.00,,CLR,0.00,0.00,VWS V14.01,2013-07-11 09:07:00,
2013-07-11 05:12:00,75.1,72.6,29.99,SE,144,5.0,7.0,92,0.00,,CLR,0.00,0.00,VWS V14.01,2013-07-11 09:12:00,
2013-07-11 05:17:00,75.1,72.6,29.99,SSE,157,3.0,7.0,92,0.00,,CLR,0.00,0.00,VWS V14.01,2013-07-11 09:17:00,
2013-07-11 05:22:00,75.1,72.6,29.99,SE,136,6.0,8.0,92,0.00,,CLR,0.00,0.00,VWS V14.01,2013-07-11 09:22:00,
2013-07-11 05:27:00,75.0,72.8,29.99,SSE,149,4.0,8.0,93,0.00,,CLR,0.00,0.00,VWS V14.01,2013-07-11 09:27:00,
2013-07-11 05:32:00,75.0,72.8,29.99,SSE,150,5.0,6.0,93,0.00,,CLR,0.00,0.00,VWS V14.01,2013-07-11 09:32:00,
2013-07-11 05:37:00,74.9,72.7,29.99,SE,135,7.0,8.0,93,0.00,,CLR,0.00,0.00,VWS V14.01,2013-07-11 09:37:00,
2013-07-11 05:42:00,74.9,72.7,30.00,SE,132,4.0,8.0,93,0.00,,CLR,0.00,0.00,VWS V14.01,2013-07-11 09:42:00,
2013-07-11 05:47:00,74.9,72.7,30.00,SSE,161,2.0,8.0,93,0.00,,CLR,0.00,0.00,VWS V14.01,2013-07-11 09:47:00,
2013-07-11 05:52:00,74.8,72.6,30.00,SE,146,2.0,8.0,93,0.00,,CLR,0.00,0.00,VWS V14.01,2013-07-11 09:52:00,
2013-07-11 05:57:00,74.8,72.6,30.00,SSE,149,3.0,8.0,93,0.00,,CLR,0.00,0.00,VWS V14.01,2013-07-11 09:57:00,
2013-07-11 06:02:00,74.8,72.6,30.00,SE,137,3.0,3.0,93,0.00,,CLR,0.00,0.00,VWS V14.01,2013-07-11 10:02:00,
2013-07-11 06:07:00,74.6,72.4,30.00,SE,144,0.0,4.0,93,0.00,,CLR,0.00,0.00,VWS V14.01,2013-07-11 10:07:00,
2013-07-11 06:13:00,74.5,72.7,30.00,SE,144,3.0,4.0,94,0.00,,CLR,0.00,0.00,VWS V14.01,2013-07-11 10:13:00,
2013-07-11 06:18:00,74.5,72.7,30.00,SE,144,2.0,5.0,94,0.00,,CLR,0.00,0.00,VWS V14.01,2013-07-11 10:18:00,
2013-07-11 06:23:00,74.5,72.7,29.99,SSE,162,1.0,5.0,94,0.00,,CLR,0.00,0.00,VWS V14.01,2013-07-11 10:23:00,
2013-07-11 06:28:00,74.4,72.6,30.00,SSE,159,2.0,5.0,94,0.00,,CLR,0.00,0.00,VWS V14.01,2013-07-11 10:28:00,
2013-07-11 06:33:00,74.4,72.6,29.99,SSE,168,2.0,2.0,94,0.00,,CLR,0.00,0.00,VWS V14.01,2013-07-11 10:33:00,
2013-07-11 06:38:00,74.3,72.5,30.00,SE,142,3.0,4.0,94,0.00,,CLR,0.00,0.00,VWS V14.01,2013-07-11 10:38:00,
2013-07-11 06:43:00,74.4,72.6,30.00,South,175,1.0,4.0,94,0.00,,CLR,0.00,5.00,VWS V14.01,2013-07-11 10:43:00,
2013-07-11 06:48:00,74.4,72.6,30.00,SSE,167,2.0,4.0,94,0.00,,CLR,0.00,9.00,VWS V14.01,2013-07-11 10:48:00,
2013-07-11 06:53:00,74.4,72.6,30.00,SSE,155,2.0,6.0,94,0.00,,CLR,0.00,11.00,VWS V14.01,2013-07-11 10:53:00,
2013-07-11 06:58:00,74.5,73.0,30.00,SE,134,5.0,6.0,95,0.00,,CLR,0.00,14.00,VWS V14.01,2013-07-11 10:58:00,
2013-07-11 07:03:00,74.6,72.8,30.00,SSE,149,3.0,5.0,94,0.00,,FEW030,0.00,16.00,VWS V14.01,2013-07-11 11:03:00,
2013-07-11 07:08:00,74.6,72.8,30.00,SSE,161,3.0,5.0,94,0.00,,FEW030,0.00,18.00,VWS V14.01,2013-07-11 11:08:00,
2013-07-11 07:13:00,74.7,72.9,30.00,ESE,121,3.0,7.0,94,0.00,,FEW030,0.00,21.00,VWS V14.01,2013-07-11 11:13:00,
2013-07-11 07:18:00,74.9,73.1,30.00,ESE,121,5.0,7.0,94,0.00,,FEW030,0.00,44.00,VWS V14.01,2013-07-11 11:18:00,
2013-07-11 07:23:00,75.1,73.3,30.00,SSE,148,6.0,7.0,94,0.00,,FEW030,0.00,54.00,VWS V14.01,2013-07-11 11:23:00,
2013-07-11 07:28:00,75.3,73.1,30.00,SSE,154,4.0,7.0,93,0.00,,FEW030,0.00,63.00,VWS V14.01,2013-07-11 11:28:00,
2013-07-11 07:33:00,75.4,73.2,30.00,SE,146,3.0,4.0,93,0.00,,FEW030,0.00,77.00,VWS V14.01,2013-07-11 11:33:00,
2013-07-11 07:38:00,75.7,73.5,29.99,South,171,3.0,6.0,93,0.00,,FEW030,0.00,88.00,VWS V14.01,2013-07-11 11:38:00,
2013-07-11 07:43:00,76.1,73.6,29.99,SE,140,5.0,7.0,92,0.00,,FEW030,0.00,97.00,VWS V14.01,2013-07-11 11:43:00,
2013-07-11 07:48:00,76.2,73.4,29.99,SE,142,7.0,9.0,91,0.00,,FEW030,0.00,104.00,VWS V14.01,2013-07-11 11:48:00,
2013-07-11 07:53:00,76.3,73.5,29.99,SSE,147,4.0,10.0,91,0.00,,FEW030,0.00,118.00,VWS V14.01,2013-07-11 11:53:00,
2013-07-11 07:58:00,76.6,73.4,29.99,SE,126,6.0,10.0,90,0.00,,FEW030,0.00,137.00,VWS V14.01,2013-07-11 11:58:00,
2013-07-11 08:03:00,76.8,73.7,29.99,SSE,155,7.0,9.0,90,0.00,,FEW030,0.00,158.00,VWS V14.01,2013-07-11 12:03:00,
2013-07-11 08:08:00,77.1,73.9,29.99,SSE,155,4.0,9.0,90,0.00,,FEW030,0.00,176.00,VWS V14.01,2013-07-11 12:08:00,
2013-07-11 08:13:00,77.2,73.7,29.99,South,188,4.0,9.0,89,0.00,,FEW030,0.00,197.00,VWS V14.01,2013-07-11 12:13:00,
2013-07-11 08:18:00,77.4,73.9,30.00,SE,143,7.0,9.0,89,0.00,,FEW030,0.00,193.00,VWS V14.01,2013-07-11 12:18:00,
2013-07-11 08:23:00,77.7,74.2,30.00,SE,134,4.0,11.0,89,0.00,,FEW030,0.00,202.00,VWS V14.01,2013-07-11 12:23:00,
2013-07-11 08:28:00,78.1,74.3,30.00,SSE,166,3.0,11.0,88,0.00,,FEW030,0.00,185.00,VWS V14.01,2013-07-11 12:28:00,
2013-07-11 08:33:00,78.3,74.5,30.00,South,174,6.0,7.0,88,0.00,,FEW030,0.00,218.00,VWS V14.01,2013-07-11 12:33:00,
2013-07-11 08:38:00,78.6,74.4,30.00,SSE,160,6.0,7.0,87,0.00,,FEW030,0.00,255.00,VWS V14.01,2013-07-11 12:38:00,
2013-07-11 08:43:00,78.7,74.5,30.00,South,169,5.0,9.0,87,0.00,,FEW030,0.00,271.00,VWS V14.01,2013-07-11 12:43:00,
2013-07-11 08:48:00,78.7,74.5,30.00,SSW,203,6.0,9.0,87,0.00,,FEW030,0.00,283.00,VWS V14.01,2013-07-11 12:48:00,
2013-07-11 08:53:00,78.9,74.4,30.00,SSW,211,4.0,9.0,86,0.00,,FEW030,0.00,299.00,VWS V14.01,2013-07-11 12:53:00,
2013-07-11 08:58:00,79.1,74.6,30.00,South,170,3.0,9.0,86,0.00,,FEW011,0.00,309.00,VWS V14.01,2013-07-11 12:58:00,
2013-07-11 09:04:00,79.4,74.8,30.00,South,181,2.0,8.0,86,0.00,,FEW011,0.00,323.00,VWS V14.01,2013-07-11 13:04:00,
2013-07-11 09:09:00,79.8,74.9,30.00,South,184,8.0,8.0,85,0.00,,FEW011,0.00,343.00,VWS V14.01,2013-07-11 13:09:00,
2013-07-11 09:14:00,80.3,75.4,30.00,SSE,158,3.0,9.0,85,0.00,,FEW011,0.00,359.00,VWS V14.01,2013-07-11 13:14:00,
2013-07-11 09:19:00,80.5,75.2,30.00,SSW,213,5.0,9.0,84,0.00,,FEW011,0.00,380.00,VWS V14.01,2013-07-11 13:19:00,
2013-07-11 09:25:00,80.5,74.9,30.00,SSW,209,3.0,9.0,83,0.00,,FEW011,0.00,404.00,VWS V14.01,2013-07-11 13:25:00,
2013-07-11 09:31:00,81.1,75.4,30.00,SW,226,7.0,9.0,83,0.00,,FEW011,0.00,427.00,VWS V14.01,2013-07-11 13:31:00,
2013-07-11 09:36:00,81.3,74.9,30.00,South,171,7.0,10.0,81,0.00,,FEW011,0.00,452.00,VWS V14.01,2013-07-11 13:36:00,
2013-07-11 09:41:00,82.0,75.6,30.00,SSW,198,8.0,10.0,81,0.00,,FEW011,0.00,508.00,VWS V14.01,2013-07-11 13:41:00,
2013-07-11 09:46:00,82.0,75.2,30.00,SSE,148,5.0,10.0,80,0.00,,FEW011,0.00,547.00,VWS V14.01,2013-07-11 13:46:00,
2013-07-11 09:52:00,82.6,75.4,30.00,SSW,202,3.0,10.0,79,0.00,,FEW011,0.00,612.00,VWS V14.01,2013-07-11 13:52:00,
2013-07-11 09:57:00,83.3,75.7,30.00,SSW,207,4.0,10.0,78,0.00,,FEW011,0.00,621.00,VWS V14.01,2013-07-11 13:57:00,
2013-07-11 10:02:00,83.2,75.6,30.00,SSW,213,7.0,11.0,78,0.00,,SCT015,0.00,654.00,VWS V14.01,2013-07-11 14:02:00,
2013-07-11 10:07:00,82.9,74.9,30.00,South,172,4.0,11.0,77,0.00,,SCT015,0.00,278.00,VWS V14.01,2013-07-11 14:07:00,
2013-07-11 10:12:00,83.2,75.2,30.00,South,190,4.0,11.0,77,0.00,,SCT015,0.00,260.00,VWS V14.01,2013-07-11 14:12:00,
2013-07-11 10:17:00,83.6,75.2,30.00,SW,227,8.0,11.0,76,0.00,,SCT015,0.00,793.00,VWS V14.01,2013-07-11 14:17:00,
2013-07-11 10:22:00,84.4,76.0,30.00,SSE,155,6.0,11.0,76,0.00,,SCT015,0.00,772.00,VWS V14.01,2013-07-11 14:22:00,
2013-07-11 10:28:00,83.4,75.1,30.00,SW,229,3.0,11.0,76,0.00,,SCT015,0.00,290.00,VWS V14.01,2013-07-11 14:28:00,
2013-07-11 10:33:00,83.7,74.9,30.00,SSW,211,4.0,8.0,75,0.00,,SCT015,0.00,831.00,VWS V14.01,2013-07-11 14:33:00,
2013-07-11 10:38:00,83.7,74.9,30.00,SSW,206,2.0,9.0,75,0.00,,SCT015,0.00,875.00,VWS V14.01,2013-07-11 14:38:00,
2013-07-11 10:43:00,84.1,74.5,30.00,SSW,202,6.0,10.0,73,0.00,,SCT015,0.00,257.00,VWS V14.01,2013-07-11 14:43:00,
2013-07-11 10:48:00,83.7,74.9,30.00,SSW,203,6.0,10.0,75,0.00,,SCT015,0.00,255.00,VWS V14.01,2013-07-11 14:48:00,
2013-07-11 10:53:00,84.4,75.6,30.00,SSW,207,3.0,10.0,75,0.00,,SCT015,0.00,318.00,VWS V14.01,2013-07-11 14:53:00,
2013-07-11 10:58:00,83.9,74.3,30.00,West,260,7.0,10.0,73,0.00,,SCT015,0.00,234.00,VWS V14.01,2013-07-11 14:58:00,
2013-07-11 11:04:00,84.3,74.7,30.00,South,189,2.0,7.0,73,0.00,,SCT015,0.00,357.00,VWS V14.01,2013-07-11 15:04:00,
2013-07-11 11:09:00,83.6,74.4,30.00,SW,234,4.0,7.0,74,0.00,,SCT015,0.00,130.00,VWS V14.01,2013-07-11 15:09:00,
2013-07-11 11:14:00,82.8,74.1,30.00,SW,236,8.0,8.0,75,0.00,,SCT018,0.00,158.00,VWS V14.01,2013-07-11 15:14:00,
2013-07-11 11:20:00,82.8,74.1,30.00,SSW,199,5.0,11.0,75,0.00,,SCT018,0.00,223.00,VWS V14.01,2013-07-11 15:20:00,
2013-07-11 11:25:00,84.3,75.5,30.00,South,186,4.0,11.0,75,0.00,,SCT018,0.00,218.00,VWS V14.01,2013-07-11 15:25:00,
2013-07-11 11:30:00,84.8,75.2,30.00,SSW,197,1.0,11.0,73,0.00,,SCT018,0.00,893.00,VWS V14.01,2013-07-11 15:30:00,
2013-07-11 11:35:00,84.4,74.0,30.00,SW,215,4.0,9.0,71,0.00,,SCT018,0.00,190.00,VWS V14.01,2013-07-11 15:35:00,
2013-07-11 11:40:00,85.0,75.4,30.00,SW,215,8.0,9.0,73,0.00,,SCT018,0.00,837.00,VWS V14.01,2013-07-11 15:40:00,
2013-07-11 11:46:00,85.4,75.3,30.00,South,180,4.0,9.0,72,0.00,,SCT018,0.00,858.00,VWS V14.01,2013-07-11 15:46:00,
2013-07-11 11:51:00,85.8,74.5,30.00,SSW,200,5.0,9.0,69,0.00,,SCT018,0.00,860.00,VWS V14.01,2013-07-11 15:51:00,
2013-07-11 11:56:00,85.7,75.6,30.00,SW,221,6.0,9.0,72,0.00,,SCT018,0.00,881.00,VWS V14.01,2013-07-11 15:56:00,
2013-07-11 12:01:00,86.6,76.1,29.99,SSE,153,5.0,9.0,71,0.00,,SCT018,0.00,889.00,VWS V14.01,2013-07-11 16:01:00,
2013-07-11 12:06:00,86.5,75.1,29.99,SW,223,3.0,11.0,69,0.00,,SCT018,0.00,902.00,VWS V14.01,2013-07-11 16:06:00,
2013-07-11 12:11:00,86.6,74.8,29.99,SSW,205,7.0,11.0,68,0.00,,SCT018,0.00,954.00,VWS V14.01,2013-07-11 16:11:00,
2013-07-11 12:16:00,87.4,76.0,29.99,SE,140,3.0,11.0,69,0.00,,SCT018,0.00,947.00,VWS V14.01,2013-07-11 16:16:00,
2013-07-11 12:21:00,87.7,75.8,29.99,WSW,243,6.0,11.0,68,0.00,,SCT018,0.00,956.00,VWS V14.01,2013-07-11 16:21:00,
2013-07-11 12:27:00,87.5,76.5,29.99,SE,138,2.0,11.0,70,0.00,,SCT018,0.00,951.00,VWS V14.01,2013-07-11 16:27:00,
2013-07-11 12:32:00,86.3,74.9,29.98,SSW,195,4.0,7.0,69,0.00,,SCT018,0.00,178.00,VWS V14.01,2013-07-11 16:32:00,
2013-07-11 12:37:00,86.8,75.8,29.98,SSW,207,2.0,8.0,70,0.00,,SCT018,0.00,928.00,VWS V14.01,2013-07-11 16:37:00,
2013-07-11 12:42:00,87.3,75.9,29.98,West,259,3.0,8.0,69,0.00,,SCT018,0.00,930.00,VWS V14.01,2013-07-11 16:42:00,
2013-07-11 12:49:00,87.1,75.3,29.98,SE,129,4.0,9.0,68,0.00,,SCT018,0.00,1011.00,VWS V14.01,2013-07-11 16:49:00,
2013-07-11 12:54:00,87.8,75.5,29.98,South,180,2.0,9.0,67,0.00,,SCT018,0.00,285.00,VWS V14.01,2013-07-11 16:54:00,
2013-07-11 12:59:00,88.6,74.4,29.98,SSW,192,3.0,9.0,63,0.00,,BKN032,0.00,1167.00,VWS V14.01,2013-07-11 16:59:00,
2013-07-11 13:04:00,87.4,73.7,29.97,ESE,117,4.0,8.0,64,0.00,,BKN032,0.00,267.00,VWS V14.01,2013-07-11 17:04:00,
2013-07-11 13:09:00,86.6,74.3,29.97,SW,226,2.0,8.0,67,0.00,,BKN032,0.00,548.00,VWS V14.01,2013-07-11 17:09:00,
2013-07-11 13:14:00,87.1,74.8,29.97,SW,227,3.0,8.0,67,0.00,,BKN032,0.00,1037.00,VWS V14.01,2013-07-11 17:14:00,
2013-07-11 13:19:00,88.2,74.5,29.96,SE,138,4.0,8.0,64,0.00,,BKN032,0.00,1053.00,VWS V14.01,2013-07-11 17:19:00,
2013-07-11 13:25:00,87.6,74.8,29.96,WSW,248,7.0,8.0,66,0.00,,BKN032,0.00,1113.00,VWS V14.01,2013-07-11 17:25:00,
2013-07-11 13:30:00,88.3,74.1,29.96,SSW,213,4.0,8.0,63,0.00,,BKN032,0.00,1120.00,VWS V14.01,2013-07-11 17:30:00,
2013-07-11 13:35:00,87.9,73.7,29.96,South,180,4.0,7.0,63,0.00,,BKN032,0.00,213.00,VWS V14.01,2013-07-11 17:35:00,
2013-07-11 13:40:00,88.5,74.8,29.96,SSW,194,7.0,10.0,64,0.00,,BKN032,0.00,1060.00,VWS V14.01,2013-07-11 17:40:00,
2013-07-11 13:45:00,89.3,75.1,29.96,SSW,208,3.0,10.0,63,0.00,,BKN032,0.00,1049.00,VWS V14.01,2013-07-11 17:45:00,
2013-07-11 13:50:00,89.2,74.5,29.96,SW,221,7.0,10.0,62,0.00,,BKN032,0.00,1020.00,VWS V14.01,2013-07-11 17:50:00,
2013-07-11 13:55:00,87.9,74.2,29.96,WSW,244,2.0,10.0,64,0.00,,BKN032,0.00,176.00,VWS V14.01,2013-07-11 17:55:00,
2013-07-11 14:00:00,87.3,74.6,29.96,SSW,200,2.0,10.0,66,0.00,,BKN040,0.00,229.00,VWS V14.01,2013-07-11 18:00:00,
2013-07-11 14:06:00,89.5,75.2,29.95,SE,130,3.0,8.0,63,0.00,,BKN040,0.00,1109.00,VWS V14.01,2013-07-11 18:06:00,
2013-07-11 14:11:00,88.8,75.5,29.95,WSW,242,4.0,8.0,65,0.00,,BKN040,0.00,983.00,VWS V14.01,2013-07-11 18:11:00,
2013-07-11 14:16:00,89.2,74.5,29.95,SSW,196,5.0,9.0,62,0.00,,BKN040,0.00,974.00,VWS V14.01,2013-07-11 18:16:00,
2013-07-11 14:21:00,90.4,76.6,29.95,WSW,238,3.0,9.0,64,0.00,,BKN040,0.00,974.00,VWS V14.01,2013-07-11 18:21:00,
2013-07-11 14:26:00,89.7,74.5,29.94,South,186,5.0,9.0,61,0.00,,BKN040,0.00,248.00,VWS V14.01,2013-07-11 18:26:00,
2013-07-11 14:32:00,89.5,75.2,29.94,SSE,158,6.0,8.0,63,0.00,,BKN040,0.00,995.00,VWS V14.01,2013-07-11 18:32:00,
2013-07-11 14:37:00,90.2,75.9,29.94,SE,142,4.0,11.0,63,0.00,,BKN040,0.00,988.00,VWS V14.01,2013-07-11 18:37:00,
2013-07-11 14:42:00,88.4,73.7,29.94,SSE,158,1.0,11.0,62,0.00,,BKN040,0.00,165.00,VWS V14.01,2013-07-11 18:42:00,
2013-07-11 14:47:00,87.7,74.5,29.94,SE,126,5.0,11.0,65,0.00,,BKN040,0.00,206.00,VWS V14.01,2013-07-11 18:47:00,
2013-07-11 14:52:00,87.9,73.7,29.94,SSW,199,2.0,11.0,63,0.00,,BKN040,0.00,230.00,VWS V14.01,2013-07-11 18:52:00,
2013-07-11 14:57:00,88.8,74.1,29.93,SW,223,4.0,11.0,62,0.00,,BKN040,0.00,1076.00,VWS V14.01,2013-07-11 18:57:00,
2013-07-11 15:02:00,89.7,73.0,29.93,SSE,157,3.0,4.0,58,0.00,,BKN060,0.00,304.00,VWS V14.01,2013-07-11 19:02:00,
2013-07-11 15:07:00,89.7,74.0,29.93,WSW,246,3.0,10.0,60,0.00,,BKN060,0.00,341.00,VWS V14.01,2013-07-11 19:07:00,
2013-07-11 15:12:00,88.9,76.5,29.93,WSW,238,9.0,12.0,67,0.00,,BKN060,0.00,1049.00,VWS V14.01,2013-07-11 19:12:00,
2013-07-11 15:17:00,89.7,77.3,29.93,West,275,9.0,12.0,67,0.00,,BKN060,0.00,1034.00,VWS V14.01,2013-07-11 19:17:00,
2013-07-11 15:22:00,90.2,76.4,29.93,West,270,8.0,16.0,64,0.00,,BKN060,0.00,274.00,VWS V14.01,2013-07-11 19:22:00,
2013-07-11 15:27:00,88.6,75.3,29.92,West,266,5.0,16.0,65,0.00,,BKN060,0.00,258.00,VWS V14.01,2013-07-11 19:27:00,
2013-07-11 15:33:00,88.8,76.0,29.92,West,262,11.0,14.0,66,0.00,,BKN060,0.00,923.00,VWS V14.01,2013-07-11 19:33:00,
2013-07-11 15:38:00,89.5,76.7,29.92,West,260,6.0,14.0,66,0.00,,,0.00,919.00,VWS V14.01,2013-07-11 19:38:00,
2013-07-11 15:43:00,89.6,76.7,29.91,West,269,11.0,14.0,66,0.00,,,0.00,923.00,VWS V14.01,2013-07-11 19:43:00,
2013-07-11 15:48:00,89.7,75.4,29.91,WSW,238,11.0,14.0,63,0.00,,,0.00,907.00,VWS V14.01,2013-07-11 19:48:00,
2013-07-11 15:53:00,89.0,75.2,29.91,West,260,5.0,14.0,64,0.00,,,0.00,912.00,VWS V14.01,2013-07-11 19:53:00,
2013-07-11 15:58:00,89.0,74.8,29.91,SW,225,6.0,14.0,63,0.00,,,0.00,940.00,VWS V14.01,2013-07-11 19:58:00,
2013-07-11 16:04:00,89.1,74.9,29.91,SW,232,11.0,18.0,63,0.00,,BKN027,0.00,963.00,VWS V14.01,2013-07-11 20:04:00,
2013-07-11 16:09:00,88.8,76.0,29.92,SW,224,8.0,18.0,66,0.00,,BKN027,0.00,951.00,VWS V14.01,2013-07-11 20:09:00,
2013-07-11 16:14:00,89.1,76.3,29.92,SSW,208,6.0,18.0,66,0.00,,BKN027,0.00,527.00,VWS V14.01,2013-07-11 20:14:00,
2013-07-11 16:20:00,88.0,76.6,29.92,South,175,4.0,18.0,69,0.00,,BKN040,0.00,693.00,VWS V14.01,2013-07-11 20:20:00,
2013-07-11 16:25:00,86.5,74.2,29.93,South,173,12.0,18.0,67,0.00,,BKN040,0.00,272.00,VWS V14.01,2013-07-11 20:25:00,
2013-07-11 16:30:00,84.5,73.2,29.93,SSE,165,8.0,18.0,69,0.00,,BKN040,0.00,162.00,VWS V14.01,2013-07-11 20:30:00,
2013-07-11 16:35:00,83.4,73.4,29.93,ESE,113,12.0,13.0,72,0.00,,BKN040,0.00,100.00,VWS V14.01,2013-07-11 20:35:00,
2013-07-11 16:40:00,82.4,73.7,29.93,South,169,9.0,17.0,75,0.00,,BKN040,0.00,83.00,VWS V14.01,2013-07-11 20:40:00,
2013-07-11 16:45:00,81.4,73.9,29.93,SE,138,12.0,17.0,78,0.00,,BKN040,0.00,60.00,VWS V14.01,2013-07-11 20:45:00,
2013-07-11 16:50:00,80.6,74.2,29.93,SE,146,9.0,17.0,81,0.00,,BKN040,0.00,49.00,VWS V14.01,2013-07-11 20:50:00,
2013-07-11 16:55:00,80.0,73.7,29.93,SE,145,10.0,17.0,81,0.00,,BKN040,0.00,44.00,VWS V14.01,2013-07-11 20:55:00,
2013-07-11 17:00:00,79.9,73.9,29.93,SSE,147,5.0,17.0,82,0.00,,-RA,0.00,35.00,VWS V14.01,2013-07-11 21:00:00,
2013-07-11 17:06:00,79.6,74.0,29.92,SSE,148,6.0,11.0,83,0.00,,-RA,0.00,28.00,VWS V14.01,2013-07-11 21:06:00,
2013-07-11 17:11:00,79.3,74.1,29.91,SE,134,4.0,11.0,84,0.00,,-RA,0.00,28.00,VWS V14.01,2013-07-11 21:11:00,
2013-07-11 17:16:00,78.8,73.9,29.92,South,175,0.0,11.0,85,0.00,,-RA,0.00,26.00,VWS V14.01,2013-07-11 21:16:00,
2013-07-11 17:21:00,78.6,74.1,29.93,West,261,6.0,11.0,86,0.00,,-RA,0.00,14.00,VWS V14.01,2013-07-11 21:21:00,
2013-07-11 17:26:00,78.5,72.9,29.93,SSW,212,5.0,11.0,83,0.00,,-RA,0.00,19.00,VWS V14.01,2013-07-11 21:26:00,
2013-07-11 17:31:00,78.8,73.2,29.93,WSW,251,10.0,15.0,83,0.00,,-RA,0.00,18.00,VWS V14.01,2013-07-11 21:31:00,
2013-07-11 17:36:00,78.4,72.8,29.93,West,278,5.0,15.0,83,0.00,,-RA,0.00,23.00,VWS V14.01,2013-07-11 21:36:00,
2013-07-11 17:41:00,78.2,73.3,29.93,WNW,286,4.0,15.0,85,0.00,,-RA,0.00,19.00,VWS V14.01,2013-07-11 21:41:00,
2013-07-11 17:46:00,77.7,73.5,29.94,WNW,297,4.0,15.0,87,0.00,,-RA,0.00,18.00,VWS V14.01,2013-07-11 21:46:00,
2013-07-11 17:52:00,77.1,72.9,29.94,NW,313,7.0,15.0,87,0.00,,-RA,0.00,16.00,VWS V14.01,2013-07-11 21:52:00,
2013-07-11 17:57:00,76.6,72.8,29.94,NW,309,8.0,15.0,88,0.00,,-RA,0.00,16.00,VWS V14.01,2013-07-11 21:57:00,
2013-07-11 18:02:00,76.2,72.4,29.94,NNW,329,5.0,8.0,88,0.00,,BKN090,0.00,18.00,VWS V14.01,2013-07-11 22:02:00,
2013-07-11 18:07:00,75.9,72.1,29.93,NW,317,3.0,8.0,88,0.00,,BKN090,0.00,19.00,VWS V14.01,2013-07-11 22:07:00,
2013-07-11 18:13:00,75.6,71.8,29.93,North,355,0.0,8.0,88,0.00,,BKN090,0.00,23.00,VWS V14.01,2013-07-11 22:13:00,
2013-07-11 18:18:00,75.6,72.1,29.93,NW,307,3.0,8.0,89,0.00,,BKN090,0.00,25.00,VWS V14.01,2013-07-11 22:18:00,
2013-07-11 18:23:00,75.5,72.4,29.93,NNW,335,1.0,8.0,90,0.00,,BKN090,0.00,28.00,VWS V14.01,2013-07-11 22:23:00,
2013-07-11 18:28:00,75.3,71.8,29.93,NNW,336,0.0,8.0,89,0.00,,BKN090,0.00,32.00,VWS V14.01,2013-07-11 22:28:00,
2013-07-11 18:34:00,75.1,71.6,29.92,NNW,336,0.0,0.0,89,0.00,,BKN090,0.00,35.00,VWS V14.01,2013-07-11 22:34:00,
2013-07-11 18:39:00,75.0,71.9,29.92,NNW,336,0.0,0.0,90,0.00,,BKN090,0.00,35.00,VWS V14.01,2013-07-11 22:39:00,
2013-07-11 18:44:00,75.1,72.0,29.92,NNW,336,0.0,0.0,90,0.00,,BKN090,0.00,32.00,VWS V14.01,2013-07-11 22:44:00,
2013-07-11 18:49:00,75.3,72.5,29.92,SE,128,0.0,0.0,91,0.00,,BKN090,0.00,26.00,VWS V14.01,2013-07-11 22:49:00,
2013-07-11 18:54:00,75.5,72.7,29.92,WSW,250,0.0,3.0,91,0.00,,BKN090,0.00,26.00,VWS V14.01,2013-07-11 22:54:00,
2013-07-11 18:59:00,75.7,72.9,29.92,WSW,244,2.0,4.0,91,0.00,,SCT090,0.00,30.00,VWS V14.01,2013-07-11 22:59:00,
2013-07-11 19:04:00,75.8,73.0,29.92,WSW,237,2.0,3.0,91,0.00,,SCT090,0.00,32.00,VWS V14.01,2013-07-11 23:04:00,
2013-07-11 19:09:00,75.9,73.1,29.92,WSW,252,2.0,4.0,91,0.00,,SCT090,0.00,35.00,VWS V14.01,2013-07-11 23:09:00,
2013-07-11 19:15:00,75.8,73.0,29.92,NW,309,0.0,4.0,91,0.00,,SCT090,0.00,37.00,VWS V14.01,2013-07-11 23:15:00,
2013-07-11 19:20:00,75.9,72.8,29.92,SW,215,1.0,5.0,90,0.00,,SCT090,0.00,44.00,VWS V14.01,2013-07-11 23:20:00,
2013-07-11 19:25:00,76.0,72.9,29.93,WSW,254,0.0,5.0,90,0.00,,SCT090,0.00,58.00,VWS V14.01,2013-07-11 23:25:00,
2013-07-11 19:30:00,76.2,73.1,29.93,WSW,243,0.0,5.0,90,0.00,,SCT090,0.00,62.00,VWS V14.01,2013-07-11 23:30:00,
2013-07-11 19:36:00,76.3,73.2,29.93,WSW,243,0.0,2.0,90,0.00,,SCT090,0.00,58.00,VWS V14.01,2013-07-11 23:36:00,
2013-07-11 19:41:00,76.2,72.7,29.93,South,179,1.0,2.0,89,0.00,,SCT090,0.00,51.00,VWS V14.01,2013-07-11 23:41:00,
2013-07-11 19:46:00,76.3,73.2,29.93,South,188,0.0,2.0,90,0.00,,SCT090,0.00,37.00,VWS V14.01,2013-07-11 23:46:00,
2013-07-11 19:51:00,76.5,73.3,29.93,SSE,168,0.0,2.0,90,0.00,,SCT090,0.00,26.00,VWS V14.01,2013-07-11 23:51:00,
2013-07-11 19:56:00,76.7,73.6,29.93,SSE,151,2.0,5.0,90,0.00,,SCT090,0.00,19.00,VWS V14.01,2013-07-11 23:56:00,
2013-07-11 20:01:00,76.5,73.0,29.93,SSW,196,1.0,2.0,89,0.00,,CLR,0.00,14.00,VWS V14.01,2013-07-12 00:01:00,
2013-07-11 20:07:00,76.5,73.3,29.93,SE,144,0.0,2.0,90,0.00,,CLR,0.00,9.00,VWS V14.01,2013-07-12 00:07:00,
2013-07-11 20:13:00,76.6,73.4,29.93,SSW,192,0.0,2.0,90,0.00,,CLR,0.00,9.00,VWS V14.01,2013-07-12 00:13:00,
2013-07-11 20:18:00,76.7,73.6,29.93,SSE,167,0.0,2.0,90,0.00,,CLR,0.00,7.00,VWS V14.01,2013-07-12 00:18:00,
2013-07-11 20:23:00,76.7,73.6,29.93,SE,145,0.0,2.0,90,0.00,,CLR,0.00,0.00,VWS V14.01,2013-07-12 00:23:00,
2013-07-11 20:28:00,76.7,73.6,29.93,SE,127,0.0,2.0,90,0.00,,CLR,0.00,0.00,VWS V14.01,2013-07-12 00:28:00,
2013-07-11 20:33:00,76.9,73.4,29.94,West,261,0.0,2.0,89,0.00,,CLR,0.00,0.00,VWS V14.01,2013-07-12 00:33:00,
2013-07-11 20:39:00,77.0,73.5,29.94,SW,225,1.0,2.0,89,0.00,,CLR,0.00,0.00,VWS V14.01,2013-07-12 00:39:00,
2013-07-11 20:44:00,77.2,74.0,29.94,SE,133,3.0,5.0,90,0.00,,CLR,0.00,0.00,VWS V14.01,2013-07-12 00:44:00,
2013-07-11 20:49:00,77.3,74.1,29.94,SE,144,3.0,5.0,90,0.00,,CLR,0.00,0.00,VWS V14.01,2013-07-12 00:49:00,
2013-07-11 20:54:00,77.2,74.0,29.93,SE,144,1.0,5.0,90,0.00,,CLR,0.00,0.00,VWS V14.01,2013-07-12 00:54:00,
2013-07-11 20:59:00,77.1,73.9,29.93,SE,144,1.0,5.0,90,0.00,,CLR,0.00,0.00,VWS V14.01,2013-07-12 00:59:00,
2013-07-11 21:04:00,76.8,73.7,29.93,SE,144,0.0,2.0,90,0.00,,CLR,0.00,0.00,VWS V14.01,2013-07-12 01:04:00,
2013-07-11 21:09:00,76.7,73.6,29.93,SE,144,1.0,2.0,90,0.00,,CLR,0.00,0.00,VWS V14.01,2013-07-12 01:09:00,
2013-07-11 21:14:00,76.8,74.0,29.93,SE,144,3.0,3.0,91,0.00,,CLR,0.00,0.00,VWS V14.01,2013-07-12 01:14:00,
2013-07-11 21:19:00,76.9,74.1,29.93,SSE,155,3.0,5.0,91,0.00,,CLR,0.00,0.00,VWS V14.01,2013-07-12 01:19:00,
2013-07-11 21:25:00,76.8,74.0,29.93,SSE,155,1.0,5.0,91,0.00,,CLR,0.00,0.00,VWS V14.01,2013-07-12 01:25:00,
2013-07-11 21:30:00,76.8,74.3,29.93,SSE,155,3.0,5.0,92,0.00,,CLR,0.00,0.00,VWS V14.01,2013-07-12 01:30:00,
2013-07-11 21:35:00,76.9,74.4,29.94,SE,138,3.0,4.0,92,0.00,,CLR,0.00,0.00,VWS V14.01,2013-07-12 01:35:00,
2013-07-11 21:40:00,76.9,74.4,29.94,SE,134,2.0,4.0,92,0.00,,CLR,0.00,0.00,VWS V14.01,2013-07-12 01:40:00,
2013-07-11 21:46:00,76.7,74.2,29.94,SE,138,3.0,5.0,92,0.00,,CLR,0.00,0.00,VWS V14.01,2013-07-12 01:46:00,
2013-07-11 21:51:00,76.6,74.1,29.94,SE,140,1.0,5.0,92,0.00,,CLR,0.00,0.00,VWS V14.01,2013-07-12 01:51:00,
2013-07-11 21:56:00,76.7,74.2,29.94,SE,142,3.0,5.0,92,0.00,,CLR,0.00,0.00,VWS V14.01,2013-07-12 01:56:00,
2013-07-11 22:01:00,76.8,74.3,29.94,SE,138,1.0,2.0,92,0.00,,CLR,0.00,0.00,VWS V14.01,2013-07-12 02:01:00,
2013-07-11 22:06:00,76.8,74.3,29.94,SE,134,2.0,4.0,92,0.00,,CLR,0.00,0.00,VWS V14.01,2013-07-12 02:06:00,
2013-07-11 22:11:00,76.7,74.2,29.94,SSE,155,0.0,4.0,92,0.00,,CLR,0.00,0.00,VWS V14.01,2013-07-12 02:11:00,
2013-07-11 22:16:00,76.6,74.1,29.95,SSE,155,0.0,4.0,92,0.00,,CLR,0.00,0.00,VWS V14.01,2013-07-12 02:16:00,
2013-07-11 22:21:00,76.6,74.1,29.94,SSE,155,2.0,4.0,92,0.00,,CLR,0.00,0.00,VWS V14.01,2013-07-12 02:21:00,
2013-07-11 22:26:00,76.9,74.4,29.94,SSE,155,3.0,4.0,92,0.00,,CLR,0.00,0.00,VWS V14.01,2013-07-12 02:26:00,
2013-07-11 22:32:00,77.0,74.5,29.94,SE,145,2.0,3.0,92,0.00,,CLR,0.00,0.00,VWS V14.01,2013-07-12 02:32:00,
2013-07-11 22:37:00,77.0,74.5,29.94,SSE,161,1.0,5.0,92,0.00,,CLR,0.00,0.00,VWS V14.01,2013-07-12 02:37:00,
2013-07-11 22:42:00,76.9,74.4,29.94,SE,146,4.0,5.0,92,0.00,,CLR,0.00,0.00,VWS V14.01,2013-07-12 02:42:00,
2013-07-11 22:47:00,76.9,74.4,29.94,SE,146,2.0,5.0,92,0.00,,CLR,0.00,0.00,VWS V14.01,2013-07-12 02:47:00,
2013-07-11 22:52:00,76.7,74.2,29.94,SSE,165,1.0,5.0,92,0.00,,CLR,0.00,0.00,VWS V14.01,2013-07-12 02:52:00,
2013-07-11 22:57:00,76.7,74.2,29.94,South,169,1.0,5.0,92,0.00,,CLR,0.00,0.00,VWS V14.01,2013-07-12 02:57:00,
2013-07-11 23:02:00,76.8,74.6,29.94,SSE,148,3.0,3.0,93,0.00,,CLR,0.00,0.00,VWS V14.01,2013-07-12 03:02:00,
2013-07-11 23:08:00,76.7,74.5,29.95,South,188,0.0,4.0,93,0.00,,CLR,0.00,0.00,VWS V14.01,2013-07-12 03:08:00,
2013-07-11 23:13:00,76.7,74.5,29.95,South,188,2.0,4.0,93,0.00,,CLR,0.00,0.00,VWS V14.01,2013-07-12 03:13:00,
2013-07-11 23:18:00,76.7,74.5,29.95,South,188,1.0,4.0,93,0.00,,CLR,0.00,0.00,VWS V14.01,2013-07-12 03:18:00,
2013-07-11 23:23:00,76.7,74.5,29.95,South,176,3.0,4.0,93,0.00,,CLR,0.00,0.00,VWS V14.01,2013-07-12 03:23:00,
2013-07-11 23:28:00,76.8,74.3,29.95,South,169,3.0,4.0,92,0.00,,CLR,0.00,0.00,VWS V14.01,2013-07-12 03:28:00,
2013-07-11 23:34:00,76.8,74.3,29.95,SE,138,4.0,5.0,92,0.00,,CLR,0.00,0.00,VWS V14.01,2013-07-12 03:34:00,
2013-07-11 23:39:00,76.9,74.4,29.95,ESE,121,4.0,5.0,92,0.00,,CLR,0.00,0.00,VWS V14.01,2013-07-12 03:39:00,
2013-07-11 23:44:00,76.8,74.3,29.95,ESE,122,2.0,7.0,92,0.00,,CLR,0.00,0.00,VWS V14.01,2013-07-12 03:44:00,
2013-07-11 23:49:00,76.6,74.1,29.95,ESE,121,4.0,7.0,92,0.00,,CLR,0.00,0.00,VWS V14.01,2013-07-12 03:49:00,
2013-07-11 23:54:00,76.4,74.2,29.95,SE,140,3.0,7.0,93,0.00,,CLR,0.00,0.00,VWS V14.01,2013-07-12 03:54:00,
2013-07-11 23:59:00,76.3,74.1,29.94,SE,138,4.0,7.0,93,0.00,,CLR,0.00,0.00,VWS V14.01,2013-07-12 03:59:00,